sensor_id;sensor_type;location;lat;lon;timestamp;temperature;humidity
31733;DHT22;18312;51.486;7.144;2023-03-14T00:02:09;11.10;99.90
31733;DHT22;18312;51.486;7.144;2023-03-14T00:04:36;11.20;99.90
31733;DHT22;18312;51.486;7.144;2023-03-14T00:07:03;11.10;99.90
31733;DHT22;18312;51.486;7.144;2023-03-14T00:09:29;11.00;99.90
31733;DHT22;18312;51.486;7.144;2023-03-14T00:11:56;11.10;99.90
31733;DHT22;18312;51.486;7.144;2023-03-14T00:14:23;11.10;99.90
31733;DHT22;18312;51.486;7.144;2023-03-14T00:16:51;11.10;99.90
31733;DHT22;18312;51.486;7.144;2023-03-14T00:19:17;11.00;99.90
31733;DHT22;18312;51.486;7.144;2023-03-14T00:21:44;10.90;99.90
31733;DHT22;18312;51.486;7.144;2023-03-14T00:24:11;11.00;99.90
31733;DHT22;18312;51.486;7.144;2023-03-14T00:26:37;11.00;99.90
31733;DHT22;18312;51.486;7.144;2023-03-14T00:29:04;10.90;99.90
31733;DHT22;18312;51.486;7.144;2023-03-14T00:31:30;10.80;99.90
31733;DHT22;18312;51.486;7.144;2023-03-14T00:33:58;10.90;99.90
31733;DHT22;18312;51.486;7.144;2023-03-14T00:36:25;10.90;99.90
31733;DHT22;18312;51.486;7.144;2023-03-14T00:38:52;11.00;99.90
31733;DHT22;18312;51.486;7.144;2023-03-14T00:41:20;11.20;99.90
31733;DHT22;18312;51.486;7.144;2023-03-14T00:43:47;11.20;99.90
31733;DHT22;18312;51.486;7.144;2023-03-14T00:46:14;11.20;99.90
31733;DHT22;18312;51.486;7.144;2023-03-14T00:48:41;11.20;99.90
31733;DHT22;18312;51.486;7.144;2023-03-14T00:51:09;11.30;99.90
31733;DHT22;18312;51.486;7.144;2023-03-14T00:53:36;11.30;99.90
31733;DHT22;18312;51.486;7.144;2023-03-14T00:56:04;11.20;99.90
31733;DHT22;18312;51.486;7.144;2023-03-14T00:58:31;10.80;99.90
31733;DHT22;18312;51.486;7.144;2023-03-14T01:00:57;10.20;99.90
31733;DHT22;18312;51.486;7.144;2023-03-14T01:03:24;9.80;99.90
31733;DHT22;18312;51.486;7.144;2023-03-14T01:05:51;9.60;99.90
31733;DHT22;18312;51.486;7.144;2023-03-14T01:08:19;9.40;99.90
31733;DHT22;18312;51.486;7.144;2023-03-14T01:10:52;9.20;99.90
31733;DHT22;18312;51.486;7.144;2023-03-14T01:13:19;9.20;99.90
31733;DHT22;18312;51.486;7.144;2023-03-14T01:15:48;9.10;99.90
31733;DHT22;18312;51.486;7.144;2023-03-14T01:18:15;9.00;99.90
31733;DHT22;18312;51.486;7.144;2023-03-14T01:20:41;8.90;99.90
31733;DHT22;18312;51.486;7.144;2023-03-14T01:23:08;8.90;99.90
31733;DHT22;18312;51.486;7.144;2023-03-14T01:25:40;8.90;99.90
31733;DHT22;18312;51.486;7.144;2023-03-14T01:28:06;8.80;99.90
31733;DHT22;18312;51.486;7.144;2023-03-14T01:30:33;8.80;99.90
31733;DHT22;18312;51.486;7.144;2023-03-14T01:33:00;8.80;99.90
31733;DHT22;18312;51.486;7.144;2023-03-14T01:35:29;8.80;99.90
31733;DHT22;18312;51.486;7.144;2023-03-14T01:37:56;8.80;99.90
31733;DHT22;18312;51.486;7.144;2023-03-14T01:40:23;8.80;99.90
31733;DHT22;18312;51.486;7.144;2023-03-14T01:42:55;8.90;99.90
31733;DHT22;18312;51.486;7.144;2023-03-14T01:48:07;8.90;99.90
31733;DHT22;18312;51.486;7.144;2023-03-14T01:53:03;8.90;99.90
31733;DHT22;18312;51.486;7.144;2023-03-14T01:55:30;8.90;99.90
31733;DHT22;18312;51.486;7.144;2023-03-14T01:57:58;8.90;99.90
31733;DHT22;18312;51.486;7.144;2023-03-14T02:00:26;8.90;99.90
31733;DHT22;18312;51.486;7.144;2023-03-14T02:02:55;8.90;99.90
31733;DHT22;18312;51.486;7.144;2023-03-14T02:05:24;9.00;99.90
31733;DHT22;18312;51.486;7.144;2023-03-14T02:07:52;8.90;99.90
31733;DHT22;18312;51.486;7.144;2023-03-14T02:10:19;8.90;99.90
31733;DHT22;18312;51.486;7.144;2023-03-14T02:12:47;9.00;99.90
31733;DHT22;18312;51.486;7.144;2023-03-14T02:15:16;8.90;99.90
31733;DHT22;18312;51.486;7.144;2023-03-14T02:17:43;8.90;99.90
31733;DHT22;18312;51.486;7.144;2023-03-14T02:20:16;8.90;99.90
31733;DHT22;18312;51.486;7.144;2023-03-14T02:22:45;8.90;99.90
31733;DHT22;18312;51.486;7.144;2023-03-14T02:25:14;9.00;99.90
31733;DHT22;18312;51.486;7.144;2023-03-14T02:27:44;9.00;99.90
31733;DHT22;18312;51.486;7.144;2023-03-14T02:30:13;9.00;99.90
31733;DHT22;18312;51.486;7.144;2023-03-14T02:32:41;8.90;99.90
31733;DHT22;18312;51.486;7.144;2023-03-14T02:35:10;9.00;99.90
31733;DHT22;18312;51.486;7.144;2023-03-14T02:37:41;9.00;99.90
31733;DHT22;18312;51.486;7.144;2023-03-14T02:40:09;9.00;99.90
31733;DHT22;18312;51.486;7.144;2023-03-14T02:42:36;9.10;99.90
31733;DHT22;18312;51.486;7.144;2023-03-14T02:47:46;9.30;99.90
31733;DHT22;18312;51.486;7.144;2023-03-14T02:50:16;9.30;99.90
31733;DHT22;18312;51.486;7.144;2023-03-14T02:52:44;9.30;99.90
31733;DHT22;18312;51.486;7.144;2023-03-14T02:55:10;9.30;99.90
31733;DHT22;18312;51.486;7.144;2023-03-14T02:57:37;9.40;99.90
31733;DHT22;18312;51.486;7.144;2023-03-14T03:00:04;9.30;99.90
31733;DHT22;18312;51.486;7.144;2023-03-14T03:02:31;9.30;99.90
31733;DHT22;18312;51.486;7.144;2023-03-14T03:04:59;9.30;99.90
31733;DHT22;18312;51.486;7.144;2023-03-14T03:07:26;9.40;99.90
31733;DHT22;18312;51.486;7.144;2023-03-14T03:09:53;9.30;99.90
31733;DHT22;18312;51.486;7.144;2023-03-14T03:12:19;9.30;99.90
31733;DHT22;18312;51.486;7.144;2023-03-14T03:14:46;9.30;99.90
31733;DHT22;18312;51.486;7.144;2023-03-14T03:17:12;9.20;99.90
31733;DHT22;18312;51.486;7.144;2023-03-14T03:19:39;9.20;99.90
31733;DHT22;18312;51.486;7.144;2023-03-14T03:22:07;9.10;99.90
31733;DHT22;18312;51.486;7.144;2023-03-14T03:24:33;9.00;99.90
31733;DHT22;18312;51.486;7.144;2023-03-14T03:27:00;9.00;99.90
31733;DHT22;18312;51.486;7.144;2023-03-14T03:29:26;9.00;99.90
31733;DHT22;18312;51.486;7.144;2023-03-14T03:31:53;9.00;99.90
31733;DHT22;18312;51.486;7.144;2023-03-14T03:34:19;9.00;99.90
31733;DHT22;18312;51.486;7.144;2023-03-14T03:36:46;9.00;99.90
31733;DHT22;18312;51.486;7.144;2023-03-14T03:39:14;9.00;99.90
31733;DHT22;18312;51.486;7.144;2023-03-14T03:41:40;9.00;99.90
31733;DHT22;18312;51.486;7.144;2023-03-14T03:44:07;9.10;99.90
31733;DHT22;18312;51.486;7.144;2023-03-14T03:46:34;9.00;99.90
31733;DHT22;18312;51.486;7.144;2023-03-14T03:49:00;9.10;99.90
31733;DHT22;18312;51.486;7.144;2023-03-14T03:51:27;9.10;99.90
31733;DHT22;18312;51.486;7.144;2023-03-14T03:53:53;9.10;99.90
31733;DHT22;18312;51.486;7.144;2023-03-14T03:56:21;9.10;99.90
31733;DHT22;18312;51.486;7.144;2023-03-14T03:58:58;9.20;99.90
31733;DHT22;18312;51.486;7.144;2023-03-14T04:01:27;9.20;99.90
31733;DHT22;18312;51.486;7.144;2023-03-14T04:04:09;9.10;99.90
31733;DHT22;18312;51.486;7.144;2023-03-14T04:06:36;9.10;99.90
31733;DHT22;18312;51.486;7.144;2023-03-14T04:09:14;9.00;99.90
31733;DHT22;18312;51.486;7.144;2023-03-14T04:11:45;9.00;99.90
31733;DHT22;18312;51.486;7.144;2023-03-14T04:14:11;8.90;99.90
31733;DHT22;18312;51.486;7.144;2023-03-14T04:16:50;8.90;99.90
31733;DHT22;18312;51.486;7.144;2023-03-14T04:19:16;8.90;99.90
31733;DHT22;18312;51.486;7.144;2023-03-14T04:21:43;8.90;99.90
31733;DHT22;18312;51.486;7.144;2023-03-14T04:24:18;8.90;99.90
31733;DHT22;18312;51.486;7.144;2023-03-14T04:26:48;9.00;99.90
31733;DHT22;18312;51.486;7.144;2023-03-14T04:29:15;9.00;99.90
31733;DHT22;18312;51.486;7.144;2023-03-14T04:31:42;9.00;99.90
31733;DHT22;18312;51.486;7.144;2023-03-14T04:34:08;8.90;99.90
31733;DHT22;18312;51.486;7.144;2023-03-14T04:36:38;8.80;99.90
31733;DHT22;18312;51.486;7.144;2023-03-14T04:39:04;8.70;99.90
31733;DHT22;18312;51.486;7.144;2023-03-14T04:41:32;8.60;99.90
31733;DHT22;18312;51.486;7.144;2023-03-14T04:44:03;8.50;99.90
31733;DHT22;18312;51.486;7.144;2023-03-14T04:46:29;8.30;99.90
31733;DHT22;18312;51.486;7.144;2023-03-14T04:48:56;8.30;99.90
31733;DHT22;18312;51.486;7.144;2023-03-14T04:51:23;8.20;99.90
31733;DHT22;18312;51.486;7.144;2023-03-14T04:53:52;8.20;99.90
31733;DHT22;18312;51.486;7.144;2023-03-14T04:56:19;8.20;99.90
31733;DHT22;18312;51.486;7.144;2023-03-14T04:58:46;8.10;99.90
31733;DHT22;18312;51.486;7.144;2023-03-14T05:01:14;8.10;99.90
31733;DHT22;18312;51.486;7.144;2023-03-14T05:03:40;8.10;99.90
31733;DHT22;18312;51.486;7.144;2023-03-14T05:06:07;8.10;99.90
31733;DHT22;18312;51.486;7.144;2023-03-14T05:08:34;8.10;99.90
31733;DHT22;18312;51.486;7.144;2023-03-14T05:11:00;8.00;99.90
31733;DHT22;18312;51.486;7.144;2023-03-14T05:13:28;8.00;99.90
31733;DHT22;18312;51.486;7.144;2023-03-14T05:16:01;8.00;99.90
31733;DHT22;18312;51.486;7.144;2023-03-14T05:18:30;8.00;99.90
31733;DHT22;18312;51.486;7.144;2023-03-14T05:20:56;8.10;99.90
31733;DHT22;18312;51.486;7.144;2023-03-14T05:23:23;8.00;99.90
31733;DHT22;18312;51.486;7.144;2023-03-14T05:25:49;8.00;99.90
31733;DHT22;18312;51.486;7.144;2023-03-14T05:28:16;8.10;99.90
31733;DHT22;18312;51.486;7.144;2023-03-14T05:30:43;8.00;99.90
31733;DHT22;18312;51.486;7.144;2023-03-14T05:33:09;8.00;99.90
31733;DHT22;18312;51.486;7.144;2023-03-14T05:35:37;8.10;99.90
31733;DHT22;18312;51.486;7.144;2023-03-14T05:38:06;8.00;99.90
31733;DHT22;18312;51.486;7.144;2023-03-14T05:40:33;8.00;99.90
31733;DHT22;18312;51.486;7.144;2023-03-14T05:43:00;8.00;99.90
31733;DHT22;18312;51.486;7.144;2023-03-14T05:45:27;8.00;99.90
31733;DHT22;18312;51.486;7.144;2023-03-14T05:47:53;8.10;99.90
31733;DHT22;18312;51.486;7.144;2023-03-14T05:50:20;8.10;99.90
31733;DHT22;18312;51.486;7.144;2023-03-14T05:52:48;8.10;99.90
31733;DHT22;18312;51.486;7.144;2023-03-14T05:55:14;8.10;99.90
31733;DHT22;18312;51.486;7.144;2023-03-14T05:57:41;8.10;99.90
31733;DHT22;18312;51.486;7.144;2023-03-14T06:00:08;8.10;99.90
31733;DHT22;18312;51.486;7.144;2023-03-14T06:02:35;8.20;99.90
31733;DHT22;18312;51.486;7.144;2023-03-14T06:05:01;8.20;99.90
31733;DHT22;18312;51.486;7.144;2023-03-14T06:07:28;8.20;99.90
31733;DHT22;18312;51.486;7.144;2023-03-14T06:09:56;8.20;99.90
31733;DHT22;18312;51.486;7.144;2023-03-14T06:12:23;8.20;99.90
31733;DHT22;18312;51.486;7.144;2023-03-14T06:14:50;8.20;99.90
31733;DHT22;18312;51.486;7.144;2023-03-14T06:17:16;8.30;99.90
31733;DHT22;18312;51.486;7.144;2023-03-14T06:19:43;8.40;99.90
31733;DHT22;18312;51.486;7.144;2023-03-14T06:22:09;8.40;99.90
31733;DHT22;18312;51.486;7.144;2023-03-14T06:24:36;8.50;99.90
31733;DHT22;18312;51.486;7.144;2023-03-14T06:27:04;8.50;99.90
31733;DHT22;18312;51.486;7.144;2023-03-14T06:29:30;8.60;99.90
31733;DHT22;18312;51.486;7.144;2023-03-14T06:31:57;8.60;99.90
31733;DHT22;18312;51.486;7.144;2023-03-14T06:34:23;8.60;99.90
31733;DHT22;18312;51.486;7.144;2023-03-14T06:36:50;8.60;99.90
31733;DHT22;18312;51.486;7.144;2023-03-14T06:39:17;8.70;99.90
31733;DHT22;18312;51.486;7.144;2023-03-14T06:41:44;8.70;99.90
31733;DHT22;18312;51.486;7.144;2023-03-14T06:44:11;8.80;99.90
31733;DHT22;18312;51.486;7.144;2023-03-14T06:46:38;8.80;99.90
31733;DHT22;18312;51.486;7.144;2023-03-14T06:49:05;8.80;99.90
31733;DHT22;18312;51.486;7.144;2023-03-14T06:51:31;8.90;99.90
31733;DHT22;18312;51.486;7.144;2023-03-14T06:53:58;8.90;99.90
31733;DHT22;18312;51.486;7.144;2023-03-14T06:56:24;9.00;99.90
31733;DHT22;18312;51.486;7.144;2023-03-14T06:58:51;9.10;99.90
31733;DHT22;18312;51.486;7.144;2023-03-14T07:01:21;9.10;99.90
31733;DHT22;18312;51.486;7.144;2023-03-14T07:03:49;9.10;99.90
31733;DHT22;18312;51.486;7.144;2023-03-14T07:06:15;9.20;99.90
31733;DHT22;18312;51.486;7.144;2023-03-14T07:08:42;9.20;99.90
31733;DHT22;18312;51.486;7.144;2023-03-14T07:11:08;9.20;99.90
31733;DHT22;18312;51.486;7.144;2023-03-14T07:13:36;9.30;99.90
31733;DHT22;18312;51.486;7.144;2023-03-14T07:16:02;9.30;99.90
31733;DHT22;18312;51.486;7.144;2023-03-14T07:18:32;9.30;99.90
31733;DHT22;18312;51.486;7.144;2023-03-14T07:20:58;9.40;99.90
31733;DHT22;18312;51.486;7.144;2023-03-14T07:23:25;9.90;99.90
31733;DHT22;18312;51.486;7.144;2023-03-14T07:25:51;9.70;99.90
31733;DHT22;18312;51.486;7.144;2023-03-14T07:28:18;9.60;99.90
31733;DHT22;18312;51.486;7.144;2023-03-14T07:30:45;9.60;99.90
31733;DHT22;18312;51.486;7.144;2023-03-14T07:33:12;9.70;99.90
31733;DHT22;18312;51.486;7.144;2023-03-14T07:35:40;9.70;99.90
31733;DHT22;18312;51.486;7.144;2023-03-14T07:38:06;9.70;99.90
31733;DHT22;18312;51.486;7.144;2023-03-14T07:40:33;9.70;99.90
31733;DHT22;18312;51.486;7.144;2023-03-14T07:43:02;9.80;99.90
31733;DHT22;18312;51.486;7.144;2023-03-14T07:45:35;9.90;99.90
31733;DHT22;18312;51.486;7.144;2023-03-14T07:48:02;9.90;99.90
31733;DHT22;18312;51.486;7.144;2023-03-14T07:50:29;9.90;99.90
31733;DHT22;18312;51.486;7.144;2023-03-14T07:52:57;9.90;99.90
31733;DHT22;18312;51.486;7.144;2023-03-14T07:55:23;9.90;99.90
31733;DHT22;18312;51.486;7.144;2023-03-14T07:57:50;9.90;99.90
31733;DHT22;18312;51.486;7.144;2023-03-14T08:00:17;9.90;99.90
31733;DHT22;18312;51.486;7.144;2023-03-14T08:02:43;9.90;99.90
31733;DHT22;18312;51.486;7.144;2023-03-14T08:05:10;9.90;99.90
31733;DHT22;18312;51.486;7.144;2023-03-14T08:07:37;10.00;99.90
31733;DHT22;18312;51.486;7.144;2023-03-14T08:10:05;10.00;99.90
31733;DHT22;18312;51.486;7.144;2023-03-14T08:12:32;10.10;99.90
31733;DHT22;18312;51.486;7.144;2023-03-14T08:14:58;10.00;99.90
31733;DHT22;18312;51.486;7.144;2023-03-14T08:17:25;10.00;99.90
31733;DHT22;18312;51.486;7.144;2023-03-14T08:19:52;10.10;99.90
31733;DHT22;18312;51.486;7.144;2023-03-14T08:22:19;10.20;99.90
31733;DHT22;18312;51.486;7.144;2023-03-14T08:24:45;10.20;99.90
31733;DHT22;18312;51.486;7.144;2023-03-14T08:27:13;10.40;99.90
31733;DHT22;18312;51.486;7.144;2023-03-14T08:29:40;10.20;99.90
31733;DHT22;18312;51.486;7.144;2023-03-14T08:32:07;10.00;99.90
31733;DHT22;18312;51.486;7.144;2023-03-14T08:34:33;10.10;99.90
31733;DHT22;18312;51.486;7.144;2023-03-14T08:37:00;10.00;99.90
31733;DHT22;18312;51.486;7.144;2023-03-14T08:39:26;10.10;99.90
31733;DHT22;18312;51.486;7.144;2023-03-14T08:41:53;10.30;99.90
31733;DHT22;18312;51.486;7.144;2023-03-14T08:44:21;10.50;99.90
31733;DHT22;18312;51.486;7.144;2023-03-14T08:46:48;10.70;99.90
31733;DHT22;18312;51.486;7.144;2023-03-14T08:49:14;11.70;99.90
31733;DHT22;18312;51.486;7.144;2023-03-14T08:51:41;11.70;99.90
31733;DHT22;18312;51.486;7.144;2023-03-14T08:54:09;11.50;99.90
31733;DHT22;18312;51.486;7.144;2023-03-14T08:56:36;11.50;99.90
31733;DHT22;18312;51.486;7.144;2023-03-14T08:59:03;11.40;99.90
31733;DHT22;18312;51.486;7.144;2023-03-14T09:01:31;11.20;99.90
31733;DHT22;18312;51.486;7.144;2023-03-14T09:03:57;11.10;99.90
31733;DHT22;18312;51.486;7.144;2023-03-14T09:06:24;10.80;99.90
31733;DHT22;18312;51.486;7.144;2023-03-14T09:08:50;10.60;99.90
31733;DHT22;18312;51.486;7.144;2023-03-14T09:11:17;10.40;99.90
31733;DHT22;18312;51.486;7.144;2023-03-14T09:13:44;10.50;99.90
31733;DHT22;18312;51.486;7.144;2023-03-14T09:16:10;10.40;99.90
31733;DHT22;18312;51.486;7.144;2023-03-14T09:18:38;10.40;99.90
31733;DHT22;18312;51.486;7.144;2023-03-14T09:21:05;10.20;99.90
31733;DHT22;18312;51.486;7.144;2023-03-14T09:23:32;10.20;99.90
31733;DHT22;18312;51.486;7.144;2023-03-14T09:25:59;10.10;99.90
31733;DHT22;18312;51.486;7.144;2023-03-14T09:28:26;10.10;99.90
31733;DHT22;18312;51.486;7.144;2023-03-14T09:30:52;9.90;99.90
31733;DHT22;18312;51.486;7.144;2023-03-14T09:33:19;9.90;99.90
31733;DHT22;18312;51.486;7.144;2023-03-14T09:35:47;9.60;99.90
31733;DHT22;18312;51.486;7.144;2023-03-14T09:38:14;9.10;99.90
31733;DHT22;18312;51.486;7.144;2023-03-14T09:40:41;8.80;99.90
31733;DHT22;18312;51.486;7.144;2023-03-14T09:43:09;8.50;99.90
31733;DHT22;18312;51.486;7.144;2023-03-14T09:45:36;8.30;99.90
31733;DHT22;18312;51.486;7.144;2023-03-14T09:48:05;8.20;99.90
31733;DHT22;18312;51.486;7.144;2023-03-14T09:50:33;8.10;99.90
31733;DHT22;18312;51.486;7.144;2023-03-14T09:53:04;8.00;99.90
31733;DHT22;18312;51.486;7.144;2023-03-14T09:55:32;8.00;99.90
31733;DHT22;18312;51.486;7.144;2023-03-14T09:58:00;8.00;99.90
31733;DHT22;18312;51.486;7.144;2023-03-14T10:00:29;8.00;99.90
31733;DHT22;18312;51.486;7.144;2023-03-14T10:02:57;8.10;99.90
31733;DHT22;18312;51.486;7.144;2023-03-14T10:05:27;8.20;99.90
31733;DHT22;18312;51.486;7.144;2023-03-14T10:07:54;8.10;99.90
31733;DHT22;18312;51.486;7.144;2023-03-14T10:10:23;8.30;99.90
31733;DHT22;18312;51.486;7.144;2023-03-14T10:12:54;8.30;99.90
31733;DHT22;18312;51.486;7.144;2023-03-14T10:15:23;8.40;99.90
31733;DHT22;18312;51.486;7.144;2023-03-14T10:17:50;8.20;99.90
31733;DHT22;18312;51.486;7.144;2023-03-14T10:20:28;8.10;99.90
31733;DHT22;18312;51.486;7.144;2023-03-14T10:22:57;8.20;99.90
31733;DHT22;18312;51.486;7.144;2023-03-14T10:25:27;8.30;99.90
31733;DHT22;18312;51.486;7.144;2023-03-14T10:27:53;8.20;99.90
31733;DHT22;18312;51.486;7.144;2023-03-14T10:30:27;8.20;99.90
31733;DHT22;18312;51.486;7.144;2023-03-14T10:32:54;8.10;99.90
31733;DHT22;18312;51.486;7.144;2023-03-14T10:35:21;8.00;99.90
31733;DHT22;18312;51.486;7.144;2023-03-14T10:37:51;7.90;99.90
31733;DHT22;18312;51.486;7.144;2023-03-14T10:40:20;7.80;99.90
31733;DHT22;18312;51.486;7.144;2023-03-14T10:42:50;7.50;99.90
31733;DHT22;18312;51.486;7.144;2023-03-14T10:45:33;7.70;99.90
31733;DHT22;18312;51.486;7.144;2023-03-14T10:48:06;7.60;99.90
31733;DHT22;18312;51.486;7.144;2023-03-14T10:50:33;7.60;99.90
31733;DHT22;18312;51.486;7.144;2023-03-14T10:53:00;7.60;99.90
31733;DHT22;18312;51.486;7.144;2023-03-14T10:55:38;7.40;99.90
31733;DHT22;18312;51.486;7.144;2023-03-14T10:58:10;7.40;99.90
31733;DHT22;18312;51.486;7.144;2023-03-14T11:00:45;7.40;99.90
31733;DHT22;18312;51.486;7.144;2023-03-14T11:03:12;7.40;99.90
31733;DHT22;18312;51.486;7.144;2023-03-14T11:05:41;7.10;99.90
31733;DHT22;18312;51.486;7.144;2023-03-14T11:08:11;7.10;99.90
31733;DHT22;18312;51.486;7.144;2023-03-14T11:10:39;6.90;99.90
31733;DHT22;18312;51.486;7.144;2023-03-14T11:13:19;6.70;99.90
31733;DHT22;18312;51.486;7.144;2023-03-14T11:15:55;6.80;99.90
31733;DHT22;18312;51.486;7.144;2023-03-14T11:18:30;6.70;99.90
31733;DHT22;18312;51.486;7.144;2023-03-14T11:21:02;6.70;99.90
31733;DHT22;18312;51.486;7.144;2023-03-14T11:23:37;6.70;99.90
31733;DHT22;18312;51.486;7.144;2023-03-14T11:26:10;6.60;99.90
31733;DHT22;18312;51.486;7.144;2023-03-14T11:28:43;6.50;99.90
31733;DHT22;18312;51.486;7.144;2023-03-14T11:31:14;6.50;99.90
31733;DHT22;18312;51.486;7.144;2023-03-14T11:33:45;6.40;99.90
31733;DHT22;18312;51.486;7.144;2023-03-14T11:36:14;6.40;99.90
31733;DHT22;18312;51.486;7.144;2023-03-14T11:38:43;6.30;99.90
31733;DHT22;18312;51.486;7.144;2023-03-14T11:41:14;6.30;99.90
31733;DHT22;18312;51.486;7.144;2023-03-14T11:43:42;6.60;99.90
31733;DHT22;18312;51.486;7.144;2023-03-14T11:46:16;6.40;99.90
31733;DHT22;18312;51.486;7.144;2023-03-14T11:48:45;6.20;99.90
31733;DHT22;18312;51.486;7.144;2023-03-14T11:51:14;6.20;99.90
31733;DHT22;18312;51.486;7.144;2023-03-14T11:53:45;6.30;99.90
31733;DHT22;18312;51.486;7.144;2023-03-14T11:56:16;6.20;99.90
31733;DHT22;18312;51.486;7.144;2023-03-14T11:58:50;6.20;99.90
31733;DHT22;18312;51.486;7.144;2023-03-14T12:01:18;6.40;99.90
31733;DHT22;18312;51.486;7.144;2023-03-14T12:03:50;6.20;99.90
31733;DHT22;18312;51.486;7.144;2023-03-14T12:06:21;6.10;99.90
31733;DHT22;18312;51.486;7.144;2023-03-14T12:08:49;6.10;99.90
31733;DHT22;18312;51.486;7.144;2023-03-14T12:11:20;6.10;99.90
31733;DHT22;18312;51.486;7.144;2023-03-14T12:13:49;6.10;99.90
31733;DHT22;18312;51.486;7.144;2023-03-14T12:16:27;6.10;99.90
31733;DHT22;18312;51.486;7.144;2023-03-14T12:18:56;6.00;99.90
31733;DHT22;18312;51.486;7.144;2023-03-14T12:21:23;6.10;99.90
31733;DHT22;18312;51.486;7.144;2023-03-14T12:23:50;6.30;99.90
31733;DHT22;18312;51.486;7.144;2023-03-14T12:26:19;6.60;99.90
31733;DHT22;18312;51.486;7.144;2023-03-14T12:28:50;6.80;99.90
31733;DHT22;18312;51.486;7.144;2023-03-14T12:31:35;7.00;99.90
31733;DHT22;18312;51.486;7.144;2023-03-14T12:34:02;7.20;99.90
31733;DHT22;18312;51.486;7.144;2023-03-14T12:36:48;7.50;99.90
31733;DHT22;18312;51.486;7.144;2023-03-14T12:39:24;7.70;99.90
31733;DHT22;18312;51.486;7.144;2023-03-14T12:42:01;7.30;99.90
31733;DHT22;18312;51.486;7.144;2023-03-14T12:44:44;7.50;99.90
31733;DHT22;18312;51.486;7.144;2023-03-14T12:50:12;7.50;99.90
31733;DHT22;18312;51.486;7.144;2023-03-14T12:52:41;7.60;99.90
31733;DHT22;18312;51.486;7.144;2023-03-14T12:55:13;7.40;99.90
31733;DHT22;18312;51.486;7.144;2023-03-14T12:57:44;7.30;99.90
31733;DHT22;18312;51.486;7.144;2023-03-14T13:00:17;6.90;99.90
31733;DHT22;18312;51.486;7.144;2023-03-14T13:02:45;6.50;99.90
31733;DHT22;18312;51.486;7.144;2023-03-14T13:05:14;6.20;99.90
31733;DHT22;18312;51.486;7.144;2023-03-14T13:10:27;6.20;99.90
31733;DHT22;18312;51.486;7.144;2023-03-14T13:12:56;6.10;99.90
31733;DHT22;18312;51.486;7.144;2023-03-14T13:15:26;6.10;99.90
31733;DHT22;18312;51.486;7.144;2023-03-14T13:17:54;6.30;99.90
31733;DHT22;18312;51.486;7.144;2023-03-14T13:20:24;6.30;99.90
31733;DHT22;18312;51.486;7.144;2023-03-14T13:22:53;6.50;99.90
31733;DHT22;18312;51.486;7.144;2023-03-14T13:25:19;6.60;99.90
31733;DHT22;18312;51.486;7.144;2023-03-14T13:27:48;6.80;99.90
31733;DHT22;18312;51.486;7.144;2023-03-14T13:30:15;7.00;99.90
31733;DHT22;18312;51.486;7.144;2023-03-14T13:32:44;6.80;99.90
31733;DHT22;18312;51.486;7.144;2023-03-14T13:35:15;6.80;99.90
31733;DHT22;18312;51.486;7.144;2023-03-14T13:37:42;6.80;99.90
31733;DHT22;18312;51.486;7.144;2023-03-14T13:40:17;6.70;99.90
31733;DHT22;18312;51.486;7.144;2023-03-14T13:42:44;6.70;99.90
31733;DHT22;18312;51.486;7.144;2023-03-14T13:45:12;6.60;99.90
31733;DHT22;18312;51.486;7.144;2023-03-14T13:47:39;6.70;99.90
31733;DHT22;18312;51.486;7.144;2023-03-14T13:52:40;6.60;99.90
31733;DHT22;18312;51.486;7.144;2023-03-14T13:55:13;6.80;99.90
31733;DHT22;18312;51.486;7.144;2023-03-14T13:57:44;7.10;99.90
31733;DHT22;18312;51.486;7.144;2023-03-14T14:00:16;7.50;99.90
31733;DHT22;18312;51.486;7.144;2023-03-14T14:02:43;7.90;99.90
31733;DHT22;18312;51.486;7.144;2023-03-14T14:05:11;8.00;99.90
31733;DHT22;18312;51.486;7.144;2023-03-14T14:07:38;8.20;99.90
31733;DHT22;18312;51.486;7.144;2023-03-14T14:10:08;8.10;99.90
31733;DHT22;18312;51.486;7.144;2023-03-14T14:12:36;8.10;99.90
31733;DHT22;18312;51.486;7.144;2023-03-14T14:15:04;8.20;99.90
31733;DHT22;18312;51.486;7.144;2023-03-14T14:17:31;8.00;99.90
31733;DHT22;18312;51.486;7.144;2023-03-14T14:19:59;7.70;99.90
31733;DHT22;18312;51.486;7.144;2023-03-14T14:22:26;7.60;99.90
31733;DHT22;18312;51.486;7.144;2023-03-14T14:24:53;7.60;99.90
31733;DHT22;18312;51.486;7.144;2023-03-14T14:27:26;7.50;99.90
31733;DHT22;18312;51.486;7.144;2023-03-14T14:29:58;7.40;99.90
31733;DHT22;18312;51.486;7.144;2023-03-14T14:32:24;7.60;99.90
31733;DHT22;18312;51.486;7.144;2023-03-14T14:34:56;7.70;99.90
31733;DHT22;18312;51.486;7.144;2023-03-14T14:37:24;8.00;99.90
31733;DHT22;18312;51.486;7.144;2023-03-14T14:39:51;8.20;99.90
31733;DHT22;18312;51.486;7.144;2023-03-14T14:42:19;8.40;99.90
31733;DHT22;18312;51.486;7.144;2023-03-14T14:44:49;8.30;99.90
31733;DHT22;18312;51.486;7.144;2023-03-14T14:47:17;8.30;99.90
31733;DHT22;18312;51.486;7.144;2023-03-14T14:49:44;8.30;99.90
31733;DHT22;18312;51.486;7.144;2023-03-14T14:52:13;8.40;99.90
31733;DHT22;18312;51.486;7.144;2023-03-14T14:54:43;8.20;99.90
31733;DHT22;18312;51.486;7.144;2023-03-14T14:57:17;8.30;99.90
31733;DHT22;18312;51.486;7.144;2023-03-14T14:59:44;8.50;99.90
31733;DHT22;18312;51.486;7.144;2023-03-14T15:02:17;8.80;99.90
31733;DHT22;18312;51.486;7.144;2023-03-14T15:04:50;8.60;99.90
31733;DHT22;18312;51.486;7.144;2023-03-14T15:07:17;8.30;99.90
31733;DHT22;18312;51.486;7.144;2023-03-14T15:09:43;8.20;99.90
31733;DHT22;18312;51.486;7.144;2023-03-14T15:12:10;8.00;99.90
31733;DHT22;18312;51.486;7.144;2023-03-14T15:14:36;7.80;99.90
31733;DHT22;18312;51.486;7.144;2023-03-14T15:17:03;7.80;99.90
31733;DHT22;18312;51.486;7.144;2023-03-14T15:19:31;7.90;99.90
31733;DHT22;18312;51.486;7.144;2023-03-14T15:21:58;7.80;99.90
31733;DHT22;18312;51.486;7.144;2023-03-14T15:24:25;7.80;99.90
31733;DHT22;18312;51.486;7.144;2023-03-14T15:26:51;7.80;99.90
31733;DHT22;18312;51.486;7.144;2023-03-14T15:29:18;7.80;99.90
31733;DHT22;18312;51.486;7.144;2023-03-14T15:31:44;7.70;99.90
31733;DHT22;18312;51.486;7.144;2023-03-14T15:34:11;7.70;99.90
31733;DHT22;18312;51.486;7.144;2023-03-14T15:36:39;7.60;99.90
31733;DHT22;18312;51.486;7.144;2023-03-14T15:39:06;7.50;99.90
31733;DHT22;18312;51.486;7.144;2023-03-14T15:41:33;7.30;99.40
31733;DHT22;18312;51.486;7.144;2023-03-14T15:43:59;7.20;98.50
31733;DHT22;18312;51.486;7.144;2023-03-14T15:46:26;7.10;98.80
31733;DHT22;18312;51.486;7.144;2023-03-14T15:48:53;7.10;99.70
31733;DHT22;18312;51.486;7.144;2023-03-14T15:51:19;7.00;98.20
31733;DHT22;18312;51.486;7.144;2023-03-14T15:53:47;7.00;98.50
31733;DHT22;18312;51.486;7.144;2023-03-14T15:56:14;7.00;98.80
31733;DHT22;18312;51.486;7.144;2023-03-14T15:58:41;6.90;97.70
31733;DHT22;18312;51.486;7.144;2023-03-14T16:01:11;6.90;97.90
31733;DHT22;18312;51.486;7.144;2023-03-14T16:03:38;6.80;97.50
31733;DHT22;18312;51.486;7.144;2023-03-14T16:06:05;6.70;96.30
31733;DHT22;18312;51.486;7.144;2023-03-14T16:08:31;6.70;97.20